Time;durP1;ratioP1;P1;durP2;ratioP2;P2;SDS_P1;SDS_P2;PMS_P1;PMS_P2;Temp;Humidity;BMP_temperature;BMP_pressure;BME280_temperature;BME280_humidity;BME280_pressure;Samples;Min_cycle;Max_cycle;Signal;HPM_P1;HPM_P2
2022/05/05 00:02:23;;;;;;;33.83;25.02;;;;;;;;;;5052583;28;20102;-68
2022/05/05 00:04:50;;;;;;;35.78;23.27;;;;;;;;;;5052502;28;20060;-69
2022/05/05 00:07:17;;;;;;;34.13;24.05;;;;;;;;;;5024578;28;20053;-68
2022/05/05 00:09:43;;;;;;;31.80;22.55;;;;;;;;;;5032294;28;20107;-68
2022/05/05 00:14:55;;;;;;;35.88;24.65;;;;;;;;;;5017613;28;20104;-68
2022/05/05 00:17:22;;;;;;;30.88;23.90;;;;;;;;;;5014988;28;20107;-68
2022/05/05 00:19:48;;;;;;;30.42;21.33;;;;;;;;;;4998827;28;20045;-68
2022/05/05 00:22:15;;;;;;;25.60;20.58;;;;;;;;;;5032406;28;20052;-68
2022/05/05 00:24:42;;;;;;;23.27;19.30;;;;;;;;;;5014720;28;20080;-68
2022/05/05 00:27:23;;;;;;;22.05;18.38;;;;;;;;;;5069516;28;20382;-67
2022/05/05 00:29:51;;;;;;;25.58;19.27;;;;;;;;;;5069293;28;20052;-66
2022/05/05 00:32:18;;;;;;;22.90;18.77;;;;;;;;;;5067794;28;20108;-67
2022/05/05 00:34:45;;;;;;;25.88;19.77;;;;;;;;;;5067107;28;20056;-67
2022/05/05 00:37:11;;;;;;;26.15;19.70;;;;;;;;;;5049251;28;20046;-65
2022/05/05 00:39:38;;;;;;;27.20;20.17;;;;;;;;;;5047753;28;20045;-66
2022/05/05 00:42:11;;;;;;;27.63;19.85;;;;;;;;;;5031209;28;20468;-66
2022/05/05 00:44:37;;;;;;;31.70;21.73;;;;;;;;;;5047935;28;20053;-66
2022/05/05 00:47:04;;;;;;;25.83;18.90;;;;;;;;;;5031107;28;20051;-66
2022/05/05 00:49:31;;;;;;;24.33;20.55;;;;;;;;;;5048862;28;20046;-67
2022/05/05 00:51:59;;;;;;;25.63;20.35;;;;;;;;;;5048726;28;20072;-66
2022/05/05 00:54:26;;;;;;;25.90;20.02;;;;;;;;;;5048622;28;20431;-67
2022/05/05 00:56:52;;;;;;;22.55;19.20;;;;;;;;;;5048879;28;20095;-66
2022/05/05 00:59:19;;;;;;;24.38;19.23;;;;;;;;;;5047471;28;20049;-66
2022/05/05 01:01:46;;;;;;;26.55;18.80;;;;;;;;;;5045043;28;20053;-66
2022/05/05 01:04:12;;;;;;;26.00;18.58;;;;;;;;;;5027672;28;20494;-66
2022/05/05 01:06:39;;;;;;;26.48;18.98;;;;;;;;;;5027203;28;20054;-66
2022/05/05 01:09:06;;;;;;;23.90;18.38;;;;;;;;;;5027608;28;20056;-67
2022/05/05 01:11:33;;;;;;;25.40;18.83;;;;;;;;;;5027571;28;20420;-67
2022/05/05 01:14:00;;;;;;;23.50;18.85;;;;;;;;;;5027501;28;20080;-66
2022/05/05 01:16:26;;;;;;;24.45;19.30;;;;;;;;;;5010965;28;20057;-67
2022/05/05 01:18:55;;;;;;;24.05;18.30;;;;;;;;;;5027274;28;20049;-67
2022/05/05 01:21:22;;;;;;;25.00;18.75;;;;;;;;;;5028291;28;20057;-66
2022/05/05 01:23:49;;;;;;;24.50;18.58;;;;;;;;;;5027564;28;20053;-66
2022/05/05 01:29:01;;;;;;;23.17;18.15;;;;;;;;;;5048410;28;20053;-66
2022/05/05 01:31:27;;;;;;;23.75;18.20;;;;;;;;;;5030360;28;20102;-66
2022/05/05 01:33:54;;;;;;;23.38;18.92;;;;;;;;;;5047855;28;20049;-67
2022/05/05 01:36:21;;;;;;;21.85;17.92;;;;;;;;;;5048098;28;20073;-67
2022/05/05 01:38:47;;;;;;;24.27;19.75;;;;;;;;;;5033377;28;20107;-67
2022/05/05 01:41:15;;;;;;;24.58;19.52;;;;;;;;;;5033135;28;20049;-67
2022/05/05 01:43:43;;;;;;;23.50;19.23;;;;;;;;;;5033283;28;20500;-67
2022/05/05 01:46:10;;;;;;;23.95;18.70;;;;;;;;;;5033482;28;20439;-67
2022/05/05 01:48:37;;;;;;;21.17;17.75;;;;;;;;;;5034778;28;20136;-67
2022/05/05 01:51:04;;;;;;;26.15;19.55;;;;;;;;;;5034834;28;20092;-66
2022/05/05 01:53:38;;;;;;;26.08;19.23;;;;;;;;;;5031427;28;20049;-67
2022/05/05 01:56:06;;;;;;;23.35;19.42;;;;;;;;;;5030889;28;20049;-66
2022/05/05 01:58:33;;;;;;;22.08;19.30;;;;;;;;;;5030269;28;20046;-67
2022/05/05 02:01:00;;;;;;;23.92;19.05;;;;;;;;;;5013688;28;20049;-66
2022/05/05 02:03:26;;;;;;;25.35;19.55;;;;;;;;;;5014099;28;20532;-67
2022/05/05 02:05:53;;;;;;;26.75;20.00;;;;;;;;;;5013647;28;20456;-66
2022/05/05 02:08:20;;;;;;;28.95;21.15;;;;;;;;;;5013459;28;20523;-67
2022/05/05 02:10:46;;;;;;;31.00;21.52;;;;;;;;;;4997047;28;20124;-66
2022/05/05 02:13:13;;;;;;;27.80;20.95;;;;;;;;;;5014414;28;20064;-67
2022/05/05 02:15:40;;;;;;;28.15;19.88;;;;;;;;;;5014510;28;20080;-66
2022/05/05 02:18:08;;;;;;;24.77;20.20;;;;;;;;;;5014596;28;20559;-67
2022/05/05 02:20:37;;;;;;;26.63;20.25;;;;;;;;;;4997125;28;20555;-67
2022/05/05 02:23:04;;;;;;;27.88;21.15;;;;;;;;;;5013088;28;20045;-67
2022/05/05 02:25:31;;;;;;;28.65;20.23;;;;;;;;;;5029431;28;20133;-66
2022/05/05 02:27:57;;;;;;;33.22;22.13;;;;;;;;;;5049053;28;20556;-66
2022/05/05 02:30:25;;;;;;;25.95;19.52;;;;;;;;;;5033743;28;20104;-66
2022/05/05 02:32:52;;;;;;;27.25;20.27;;;;;;;;;;5032469;28;20053;-66
2022/05/05 02:35:19;;;;;;;28.52;20.42;;;;;;;;;;5033935;28;20466;-67
2022/05/05 02:40:32;;;;;;;25.60;19.35;;;;;;;;;;5032610;28;20053;-67
2022/05/05 02:42:59;;;;;;;23.70;19.20;;;;;;;;;;5032483;28;20061;-66
2022/05/05 02:45:26;;;;;;;27.13;19.88;;;;;;;;;;5032343;28;20049;-67
2022/05/05 02:47:53;;;;;;;27.73;20.73;;;;;;;;;;5032073;28;20099;-66
2022/05/05 02:50:20;;;;;;;30.30;20.60;;;;;;;;;;5031252;28;20092;-67
2022/05/05 02:52:47;;;;;;;25.05;19.10;;;;;;;;;;5016716;28;20131;-67
2022/05/05 02:55:14;;;;;;;34.22;21.20;;;;;;;;;;5048721;28;20045;-67
2022/05/05 02:57:40;;;;;;;28.13;20.55;;;;;;;;;;5032192;28;20471;-69
2022/05/05 03:00:10;;;;;;;31.33;20.63;;;;;;;;;;5032159;28;20049;-69
2022/05/05 03:02:38;;;;;;;26.15;19.80;;;;;;;;;;5033144;28;20053;-69
2022/05/05 03:05:05;;;;;;;32.80;22.52;;;;;;;;;;5031828;28;20045;-69
2022/05/05 03:07:32;;;;;;;27.30;20.60;;;;;;;;;;5032821;28;20045;-69
2022/05/05 03:09:59;;;;;;;32.03;22.10;;;;;;;;;;5031986;28;20053;-69
2022/05/05 03:12:25;;;;;;;32.13;21.30;;;;;;;;;;5031756;28;20107;-70
2022/05/05 03:14:53;;;;;;;29.85;21.63;;;;;;;;;;5026027;28;20081;-69
2022/05/05 03:17:20;;;;;;;35.50;22.98;;;;;;;;;;5000038;28;20508;-69
2022/05/05 03:19:47;;;;;;;34.85;23.13;;;;;;;;;;5046171;28;20053;-69
2022/05/05 03:22:14;;;;;;;36.85;23.52;;;;;;;;;;5032668;28;20049;-69
2022/05/05 03:24:41;;;;;;;40.65;24.13;;;;;;;;;;5032703;28;20053;-70
2022/05/05 03:27:07;;;;;;;40.90;24.88;;;;;;;;;;5032462;28;20042;-68
2022/05/05 03:29:34;;;;;;;40.58;23.52;;;;;;;;;;5031458;28;20050;-69
2022/05/05 03:32:00;;;;;;;39.42;23.70;;;;;;;;;;5032267;28;20045;-70
2022/05/05 03:34:27;;;;;;;48.85;24.85;;;;;;;;;;5029203;28;20409;-68
2022/05/05 03:36:54;;;;;;;42.47;23.67;;;;;;;;;;5023307;28;20484;-69
2022/05/05 03:39:21;;;;;;;49.60;23.15;;;;;;;;;;5036890;28;20416;-68
2022/05/05 03:41:48;;;;;;;57.92;22.95;;;;;;;;;;5031906;28;20488;-68
2022/05/05 03:44:14;;;;;;;80.43;24.63;;;;;;;;;;5032664;28;20424;-68
2022/05/05 03:46:41;;;;;;;92.60;24.98;;;;;;;;;;5031180;28;20046;-68
2022/05/05 03:49:09;;;;;;;67.63;24.63;;;;;;;;;;5015050;28;20080;-68
2022/05/05 03:51:36;;;;;;;39.20;21.92;;;;;;;;;;5032766;28;20049;-69
2022/05/05 03:54:02;;;;;;;45.97;22.10;;;;;;;;;;5032712;28;20057;-68
2022/05/05 03:56:29;;;;;;;54.17;23.35;;;;;;;;;;5032408;28;20046;-68
2022/05/05 03:58:56;;;;;;;52.58;22.30;;;;;;;;;;5031112;28;20119;-68
2022/05/05 04:01:22;;;;;;;51.88;22.73;;;;;;;;;;5031670;28;20463;-69
2022/05/05 04:03:49;;;;;;;46.50;24.02;;;;;;;;;;5031760;28;20495;-68
2022/05/05 04:06:17;;;;;;;40.97;23.27;;;;;;;;;;5030964;28;20049;-68
2022/05/05 04:08:43;;;;;;;38.40;23.20;;;;;;;;;;5030528;28;20492;-68
2022/05/05 04:11:10;;;;;;;47.08;22.52;;;;;;;;;;5030885;28;20107;-68
2022/05/05 04:13:36;;;;;;;39.63;22.70;;;;;;;;;;5030704;28;20076;-69
2022/05/05 04:16:08;;;;;;;46.92;23.00;;;;;;;;;;5031838;28;20427;-68
2022/05/05 04:18:35;;;;;;;85.82;24.85;;;;;;;;;;5030147;28;20049;-69
2022/05/05 04:21:02;;;;;;;42.10;23.80;;;;;;;;;;5032030;28;20137;-68
2022/05/05 04:23:29;;;;;;;43.70;25.17;;;;;;;;;;5031308;28;20512;-69
2022/05/05 04:26:12;;;;;;;42.67;25.13;;;;;;;;;;5032293;28;20131;-69
2022/05/05 04:28:43;;;;;;;48.53;25.80;;;;;;;;;;5014900;28;20421;-69
2022/05/05 04:31:14;;;;;;;42.53;26.58;;;;;;;;;;5030956;28;20076;-68
2022/05/05 04:33:41;;;;;;;49.10;27.63;;;;;;;;;;5015039;28;20512;-69
2022/05/05 04:36:08;;;;;;;44.92;26.38;;;;;;;;;;5031135;28;20057;-68
2022/05/05 04:38:35;;;;;;;46.35;25.92;;;;;;;;;;5014544;28;20531;-68
2022/05/05 04:41:02;;;;;;;46.33;26.45;;;;;;;;;;5031423;28;20566;-68
2022/05/05 04:43:29;;;;;;;40.40;25.15;;;;;;;;;;5030279;28;20405;-69
2022/05/05 04:45:55;;;;;;;37.97;24.38;;;;;;;;;;5030508;28;20057;-69
2022/05/05 04:48:22;;;;;;;41.13;25.20;;;;;;;;;;5024652;28;20077;-69
2022/05/05 04:50:49;;;;;;;43.80;25.40;;;;;;;;;;5010492;28;20049;-69
2022/05/05 04:53:15;;;;;;;35.90;23.17;;;;;;;;;;5011702;28;20053;-69
2022/05/05 04:55:42;;;;;;;34.95;23.38;;;;;;;;;;5012312;28;20394;-69
2022/05/05 04:58:08;;;;;;;35.95;23.20;;;;;;;;;;5014225;28;20061;-68
2022/05/05 05:00:36;;;;;;;38.05;22.27;;;;;;;;;;5013951;28;20546;-68
2022/05/05 05:03:02;;;;;;;37.25;24.75;;;;;;;;;;5012558;28;20105;-67
2022/05/05 05:05:29;;;;;;;34.15;23.55;;;;;;;;;;5011598;28;20081;-67
2022/05/05 05:07:56;;;;;;;34.00;22.95;;;;;;;;;;5011622;28;20046;-68
2022/05/05 05:10:22;;;;;;;32.28;23.40;;;;;;;;;;5010323;28;20057;-67
2022/05/05 05:12:49;;;;;;;35.38;22.95;;;;;;;;;;5012974;28;20050;-67
2022/05/05 05:15:16;;;;;;;39.45;23.73;;;;;;;;;;5015467;28;20519;-68
2022/05/05 05:17:42;;;;;;;33.85;23.98;;;;;;;;;;5015509;28;20544;-68
2022/05/05 05:20:09;;;;;;;37.25;24.13;;;;;;;;;;5015386;28;20416;-67
2022/05/05 05:22:37;;;;;;;32.92;24.27;;;;;;;;;;5015350;28;20060;-68
2022/05/05 05:25:04;;;;;;;32.67;23.48;;;;;;;;;;5014390;28;20046;-67
2022/05/05 05:27:30;;;;;;;32.70;22.85;;;;;;;;;;5037986;23;20046;-72
2022/05/05 05:29:57;;;;;;;31.15;22.45;;;;;;;;;;5015225;28;20100;-72
2022/05/05 05:32:23;;;;;;;34.30;23.88;;;;;;;;;;5015205;28;20440;-72
2022/05/05 05:34:50;;;;;;;30.83;23.58;;;;;;;;;;5015491;28;20378;-72
2022/05/05 05:37:17;;;;;;;30.25;22.73;;;;;;;;;;5015830;28;20050;-73
2022/05/05 05:39:44;;;;;;;30.60;21.60;;;;;;;;;;5014890;28;20049;-72
2022/05/05 05:42:10;;;;;;;29.13;21.30;;;;;;;;;;5015011;28;20053;-72
2022/05/05 05:44:37;;;;;;;30.25;21.80;;;;;;;;;;5014815;28;20046;-72
2022/05/05 05:47:04;;;;;;;25.45;19.88;;;;;;;;;;5014764;28;20452;-72
2022/05/05 05:49:31;;;;;;;28.05;21.80;;;;;;;;;;5014707;28;20116;-71
2022/05/05 05:51:57;;;;;;;26.50;20.70;;;;;;;;;;5014337;28;20050;-72
2022/05/05 05:54:24;;;;;;;25.80;19.67;;;;;;;;;;5013321;28;20068;-72
2022/05/05 05:56:50;;;;;;;22.77;19.13;;;;;;;;;;5014559;28;20500;-72
2022/05/05 05:59:17;;;;;;;25.23;19.60;;;;;;;;;;5014539;28;20104;-72
2022/05/05 06:04:29;;;;;;;23.58;19.02;;;;;;;;;;5014323;28;20056;-72
2022/05/05 06:06:56;;;;;;;25.48;20.25;;;;;;;;;;5014337;28;20104;-70
2022/05/05 06:09:22;;;;;;;23.48;19.25;;;;;;;;;;5014275;28;20456;-70
2022/05/05 06:11:49;;;;;;;25.60;20.15;;;;;;;;;;5014367;28;20131;-71
2022/05/05 06:14:16;;;;;;;24.70;19.65;;;;;;;;;;5014291;28;20050;-70
2022/05/05 06:16:42;;;;;;;23.25;19.27;;;;;;;;;;5014133;28;20497;-71
2022/05/05 06:19:09;;;;;;;23.20;18.70;;;;;;;;;;5012491;28;20588;-70
2022/05/05 06:21:36;;;;;;;22.55;19.52;;;;;;;;;;5011998;28;20054;-70
2022/05/05 06:24:03;;;;;;;24.38;18.30;;;;;;;;;;5011830;28;20054;-71
2022/05/05 06:26:30;;;;;;;22.13;18.08;;;;;;;;;;4998404;28;20424;-70
2022/05/05 06:28:57;;;;;;;22.88;18.33;;;;;;;;;;5012037;28;20038;-71
2022/05/05 06:31:23;;;;;;;22.77;18.48;;;;;;;;;;5012127;28;20046;-71
2022/05/05 06:33:51;;;;;;;27.17;19.40;;;;;;;;;;5011201;28;20058;-70
2022/05/05 06:36:17;;;;;;;21.52;17.77;;;;;;;;;;5011760;28;20050;-71
2022/05/05 06:38:44;;;;;;;22.55;18.58;;;;;;;;;;5018733;28;20041;-71
2022/05/05 06:41:13;;;;;;;22.60;18.05;;;;;;;;;;5030055;28;20049;-71
2022/05/05 06:43:40;;;;;;;19.45;17.10;;;;;;;;;;5031496;28;20136;-70
2022/05/05 06:46:07;;;;;;;21.30;18.10;;;;;;;;;;5018683;28;20057;-70
2022/05/05 06:48:34;;;;;;;20.02;17.85;;;;;;;;;;5011513;28;20338;-72
2022/05/05 06:51:01;;;;;;;20.73;18.48;;;;;;;;;;5011222;28;20054;-70
2022/05/05 06:53:28;;;;;;;19.75;17.50;;;;;;;;;;5010447;28;20046;-71
2022/05/05 06:55:57;;;;;;;19.92;16.75;;;;;;;;;;5011605;28;20185;-70
2022/05/05 06:58:24;;;;;;;20.95;16.85;;;;;;;;;;5010802;28;20050;-71
2022/05/05 07:03:36;;;;;;;19.65;17.50;;;;;;;;;;5010923;28;20081;-69
2022/05/05 07:06:03;;;;;;;18.55;15.77;;;;;;;;;;5011214;28;20045;-70
2022/05/05 07:10:52;;;;;;;17.75;15.50;;;;;;;;;;5010811;28;20049;-70
2022/05/05 07:11:16;;;;;;;17.52;15.07;;;;;;;;;;5006495;28;20057;-69
2022/05/05 07:13:43;;;;;;;21.70;15.85;;;;;;;;;;5011025;28;20108;-70
2022/05/05 07:16:09;;;;;;;18.67;15.32;;;;;;;;;;5011009;28;20062;-69
2022/05/05 07:18:37;;;;;;;17.42;15.60;;;;;;;;;;5010869;28;20056;-69
2022/05/05 07:21:03;;;;;;;18.92;14.65;;;;;;;;;;5010790;28;20053;-67
2022/05/05 07:23:30;;;;;;;17.88;14.93;;;;;;;;;;5001955;28;20313;-69
2022/05/05 07:25:57;;;;;;;17.92;15.18;;;;;;;;;;5002744;28;20054;-69
2022/05/05 07:28:23;;;;;;;18.13;14.20;;;;;;;;;;5000334;28;20455;-68
2022/05/05 07:30:51;;;;;;;15.00;13.50;;;;;;;;;;5005826;28;20057;-68
2022/05/05 07:33:19;;;;;;;13.80;12.40;;;;;;;;;;5002088;28;20500;-75
2022/05/05 07:35:49;;;;;;;14.68;12.68;;;;;;;;;;4999787;28;20072;-67
2022/05/05 07:38:15;;;;;;;14.25;12.23;;;;;;;;;;4999976;28;20104;-67
2022/05/05 07:40:47;;;;;;;14.60;11.93;;;;;;;;;;5002606;28;20053;-70
2022/05/05 07:43:13;;;;;;;14.57;12.95;;;;;;;;;;5002094;28;20508;-67
2022/05/05 07:45:40;;;;;;;13.02;11.02;;;;;;;;;;5006229;28;20057;-75
2022/05/05 07:48:07;;;;;;;13.65;12.25;;;;;;;;;;4999489;28;20034;-75
2022/05/05 07:50:34;;;;;;;13.25;11.90;;;;;;;;;;5003724;28;20054;-75
2022/05/05 07:53:00;;;;;;;13.00;11.73;;;;;;;;;;5004115;28;20119;-75
2022/05/05 07:55:27;;;;;;;12.20;10.90;;;;;;;;;;5001805;28;20061;-77
2022/05/05 07:57:54;;;;;;;14.13;10.93;;;;;;;;;;5002938;28;20050;-76
2022/05/05 08:00:21;;;;;;;12.65;11.35;;;;;;;;;;5005000;28;20425;-70
2022/05/05 08:02:48;;;;;;;12.32;10.88;;;;;;;;;;4999206;28;20137;-68
2022/05/05 08:05:15;;;;;;;12.70;10.75;;;;;;;;;;4999648;28;20414;-67
2022/05/05 08:07:47;;;;;;;12.13;10.63;;;;;;;;;;5001284;28;20066;-67
2022/05/05 08:10:14;;;;;;;12.05;10.82;;;;;;;;;;5006556;28;20049;-67
2022/05/05 08:12:41;;;;;;;13.10;11.30;;;;;;;;;;5001867;28;20049;-67
2022/05/05 08:15:08;;;;;;;12.40;11.10;;;;;;;;;;5003470;28;20883;-67
2022/05/05 08:17:35;;;;;;;15.23;12.70;;;;;;;;;;4997421;28;20049;-70
2022/05/05 08:20:04;;;;;;;15.02;13.43;;;;;;;;;;5005651;28;20411;-70
2022/05/05 08:22:30;;;;;;;14.07;12.57;;;;;;;;;;4996374;28;20050;-67
2022/05/05 08:30:27;;;;;;;15.23;13.63;;;;;;;;;;5001721;28;20092;-68
2022/05/05 08:32:54;;;;;;;19.55;13.68;;;;;;;;;;4999390;28;20523;-68
2022/05/05 08:35:22;;;;;;;15.95;13.07;;;;;;;;;;4999365;28;20177;-71
2022/05/05 08:37:52;;;;;;;18.70;13.68;;;;;;;;;;5000549;28;20046;-66
2022/05/05 08:40:18;;;;;;;14.05;12.40;;;;;;;;;;5002342;28;20649;-66
2022/05/05 08:42:46;;;;;;;14.05;12.60;;;;;;;;;;4996306;28;20501;-66
2022/05/05 08:45:12;;;;;;;13.98;12.50;;;;;;;;;;5000803;28;20531;-67
2022/05/05 08:47:39;;;;;;;14.85;12.80;;;;;;;;;;5003060;28;20396;-65
2022/05/05 08:50:12;;;;;;;16.77;13.10;;;;;;;;;;5006322;28;20050;-69
2022/05/05 08:52:48;;;;;;;;;;;;;;;;;;5003372;28;20050;-69
2022/05/05 08:55:18;;;;;;;14.70;12.32;;;;;;;;;;5005965;28;19921;-72
2022/05/05 08:57:45;;;;;;;15.38;13.23;;;;;;;;;;5003591;28;20567;-70
2022/05/05 09:00:14;;;;;;;23.05;13.10;;;;;;;;;;5008715;28;20065;-68
2022/05/05 09:02:42;;;;;;;14.52;11.55;;;;;;;;;;5002023;28;20053;-73
2022/05/05 09:05:09;;;;;;;14.85;13.45;;;;;;;;;;5007331;28;20489;-73
2022/05/05 09:07:57;;;;;;;14.02;12.63;;;;;;;;;;5003534;28;20057;-72
2022/05/05 09:10:23;;;;;;;16.75;13.48;;;;;;;;;;5010056;28;20046;-72
2022/05/05 09:12:58;;;;;;;13.98;12.48;;;;;;;;;;4990772;28;20465;-71
2022/05/05 09:15:32;;;;;;;14.65;13.25;;;;;;;;;;5004061;28;20496;-70
2022/05/05 09:18:11;;;;;;;15.35;13.82;;;;;;;;;;5007816;28;20068;-72
2022/05/05 09:20:38;;;;;;;13.98;12.60;;;;;;;;;;5004450;28;20141;-74
2022/05/05 09:23:28;;;;;;;13.67;12.23;;;;;;;;;;5002455;28;20049;-70
2022/05/05 09:25:59;;;;;;;13.80;12.32;;;;;;;;;;5002527;28;20335;-73
2022/05/05 09:28:35;;;;;;;19.25;14.23;;;;;;;;;;4988291;28;20116;-72
2022/05/05 09:31:04;;;;;;;;;;;;;;;;;;5002890;28;20058;-69
2022/05/05 09:33:36;;;;;;;15.40;13.77;;;;;;;;;;5006873;28;19928;-71
2022/05/05 09:36:04;;;;;;;16.85;13.52;;;;;;;;;;5012597;28;20504;-72
2022/05/05 09:38:50;;;;;;;17.25;13.45;;;;;;;;;;5003745;28;20109;-68
2022/05/05 09:41:43;;;;;;;16.55;14.52;;;;;;;;;;5011410;28;20538;-68
2022/05/05 09:44:15;;;;;;;16.50;13.88;;;;;;;;;;5015100;28;20050;-70
2022/05/05 09:46:44;;;;;;;15.07;13.38;;;;;;;;;;5004278;28;20050;-71
2022/05/05 09:49:19;;;;;;;13.55;12.25;;;;;;;;;;4971508;28;20084;-72
2022/05/05 10:00:47;;;;;;;16.00;12.20;;;;;;;;;;5005989;28;20054;-75
2022/05/05 10:04:05;;;;;;;15.13;13.52;;;;;;;;;;5003449;28;20058;-69
2022/05/05 10:06:36;;;;;;;16.67;12.73;;;;;;;;;;5001311;28;20171;-68
2022/05/05 10:09:08;;;;;;;13.90;12.48;;;;;;;;;;5006982;28;20042;-70
2022/05/05 10:11:35;;;;;;;16.77;14.07;;;;;;;;;;5008088;28;20493;-72
2022/05/05 10:14:10;;;;;;;18.27;15.88;;;;;;;;;;5001070;28;21158;-64
2022/05/05 10:16:39;;;;;;;19.30;14.57;;;;;;;;;;5000040;28;20054;-70
2022/05/05 10:19:06;;;;;;;20.27;15.15;;;;;;;;;;5007532;28;20489;-66
2022/05/05 10:21:59;;;;;;;19.23;15.02;;;;;;;;;;5002413;28;20062;-65
2022/05/05 10:24:34;;;;;;;19.00;16.35;;;;;;;;;;4998098;28;20050;-66
2022/05/05 10:27:03;;;;;;;22.80;17.35;;;;;;;;;;5014048;28;20053;-66
2022/05/05 10:29:36;;;;;;;20.92;17.27;;;;;;;;;;5001928;28;20571;-65
2022/05/05 10:32:09;;;;;;;17.35;15.05;;;;;;;;;;5000074;28;20046;-70
2022/05/05 10:34:40;;;;;;;19.25;16.35;;;;;;;;;;5001807;28;20045;-69
2022/05/05 10:37:17;;;;;;;17.48;15.18;;;;;;;;;;5005016;28;20054;-69
2022/05/05 10:39:51;;;;;;;19.02;15.90;;;;;;;;;;5000497;28;20705;-70
2022/05/05 10:42:20;;;;;;;18.80;15.60;;;;;;;;;;4999241;28;20133;-70
2022/05/05 10:45:24;;;;;;;17.52;14.95;;;;;;;;;;4998941;28;20058;-70
2022/05/05 10:47:58;;;;;;;15.50;13.35;;;;;;;;;;4996341;28;20050;-75
2022/05/05 10:50:38;;;;;;;15.43;13.70;;;;;;;;;;5000377;28;20567;-75
2022/05/05 10:53:07;;;;;;;14.38;12.68;;;;;;;;;;5000251;28;20547;-73
2022/05/05 10:55:39;;;;;;;16.00;13.95;;;;;;;;;;5000728;28;20052;-73
2022/05/05 10:58:58;;;;;;;20.52;13.85;;;;;;;;;;4999401;28;20045;-73
2022/05/05 11:01:26;;;;;;;16.40;14.55;;;;;;;;;;4997237;28;20046;-74
2022/05/05 11:04:15;;;;;;;17.10;14.35;;;;;;;;;;4998707;28;20058;-74
2022/05/05 11:06:42;;;;;;;18.20;14.85;;;;;;;;;;5003940;28;20076;-71
2022/05/05 11:09:10;;;;;;;18.27;15.63;;;;;;;;;;5002498;28;20042;-70
2022/05/05 11:11:43;;;;;;;17.75;15.80;;;;;;;;;;4983029;28;20050;-66
2022/05/05 11:21:32;;;;;;;;;;;;;;;;;;4998568;28;20052;-71
2022/05/05 11:22:45;;;;;;;18.48;16.58;;;;;;;;;;4999121;28;20124;-70
2022/05/05 11:25:12;;;;;;;17.50;15.73;;;;;;;;;;5002472;28;20062;-70
2022/05/05 11:28:13;;;;;;;;;;;;;;;;;;;;;
2022/05/05 11:30:44;;;;;;;19.75;17.75;;;;;;;;;;5040716;28;20526;-73
2022/05/05 11:33:11;;;;;;;18.45;16.55;;;;;;;;;;5042871;28;20044;-73
2022/05/05 11:35:53;;;;;;;21.80;19.00;;;;;;;;;;5038215;28;20399;-74
2022/05/05 11:38:21;;;;;;;20.83;17.70;;;;;;;;;;5051375;28;20067;-72
2022/05/05 11:40:47;;;;;;;20.45;17.88;;;;;;;;;;5057612;28;20044;-71
2022/05/05 11:45:59;;;;;;;19.52;17.58;;;;;;;;;;5055914;28;20040;-72
2022/05/05 11:48:26;;;;;;;21.33;18.48;;;;;;;;;;5057868;28;20045;-70
2022/05/05 11:51:06;;;;;;;21.67;18.55;;;;;;;;;;5056372;28;20040;-66
2022/05/05 11:53:33;;;;;;;23.58;18.67;;;;;;;;;;5057225;28;20052;-70
2022/05/05 11:55:59;;;;;;;22.98;20.35;;;;;;;;;;5057788;28;20044;-67
2022/05/05 12:04:03;;;;;;;27.45;23.98;;;;;;;;;;5057266;28;20048;-67
2022/05/05 12:06:30;;;;;;;28.65;25.55;;;;;;;;;;5058930;28;20047;-65
2022/05/05 12:08:57;;;;;;;28.15;24.83;;;;;;;;;;5056534;28;20471;-66
2022/05/05 12:11:27;;;;;;;32.38;27.23;;;;;;;;;;5056820;28;20048;-66
2022/05/05 12:14:06;;;;;;;32.72;27.45;;;;;;;;;;5055358;28;20060;-66
2022/05/05 12:16:34;;;;;;;33.25;26.63;;;;;;;;;;5061343;28;20049;-66
2022/05/05 12:19:09;;;;;;;34.70;27.65;;;;;;;;;;5063282;28;20317;-65
2022/05/05 12:21:55;;;;;;;;;;;;;;;;;;5059361;28;20048;-66
2022/05/05 12:24:23;;;;;;;34.13;28.35;;;;;;;;;;5055936;28;19920;-67
2022/05/05 12:27:09;;;;;;;37.92;30.20;;;;;;;;;;5058746;28;20049;-68
2022/05/05 12:29:42;;;;;;;42.00;32.15;;;;;;;;;;5061787;28;20427;-67
2022/05/05 12:32:13;;;;;;;41.72;29.90;;;;;;;;;;5056446;28;20041;-65
2022/05/05 12:34:40;;;;;;;34.40;27.40;;;;;;;;;;5058832;28;20044;-65
2022/05/05 12:37:14;;;;;;;34.63;28.58;;;;;;;;;;5057194;28;20541;-65
2022/05/05 12:40:03;;;;;;;27.98;24.45;;;;;;;;;;5059556;28;20095;-65
2022/05/05 12:42:44;;;;;;;27.95;23.95;;;;;;;;;;5059168;28;20087;-67
2022/05/05 12:45:16;;;;;;;29.65;22.80;;;;;;;;;;5058935;28;20053;-66
2022/05/05 12:47:47;;;;;;;27.08;23.15;;;;;;;;;;5055244;28;20430;-65
2022/05/05 12:50:43;;;;;;;27.50;22.77;;;;;;;;;;5059426;28;20052;-66
2022/05/05 13:01:26;;;;;;;28.08;23.70;;;;;;;;;;5052987;28;20644;-68
2022/05/05 13:03:54;;;;;;;31.15;24.13;;;;;;;;;;5061694;28;20044;-66
2022/05/05 13:06:25;;;;;;;30.23;24.00;;;;;;;;;;5058032;28;20049;-66
2022/05/05 13:08:52;;;;;;;32.38;25.08;;;;;;;;;;5055728;28;20052;-66
2022/05/05 13:11:20;;;;;;;30.35;23.60;;;;;;;;;;5060278;28;20048;-66
2022/05/05 13:13:48;;;;;;;31.58;25.55;;;;;;;;;;5055805;28;20106;-66
2022/05/05 13:16:19;;;;;;;32.83;25.08;;;;;;;;;;5059250;28;20495;-67
2022/05/05 13:18:46;;;;;;;31.90;23.90;;;;;;;;;;5061128;28;20041;-65
2022/05/05 13:21:12;;;;;;;28.95;23.73;;;;;;;;;;5057476;28;20055;-66
2022/05/05 13:23:39;;;;;;;27.77;23.15;;;;;;;;;;5056883;28;20400;-66
2022/05/05 13:26:06;;;;;;;33.00;24.27;;;;;;;;;;5056581;28;20053;-66
2022/05/05 13:28:32;;;;;;;30.17;23.88;;;;;;;;;;5057655;28;20052;-66
2022/05/05 13:30:59;;;;;;;31.60;23.70;;;;;;;;;;5057121;28;20041;-66
2022/05/05 13:33:26;;;;;;;29.15;23.63;;;;;;;;;;5058177;28;20056;-66
2022/05/05 13:35:52;;;;;;;30.30;22.48;;;;;;;;;;5059211;28;20045;-66
2022/05/05 13:38:19;;;;;;;33.80;23.75;;;;;;;;;;5063559;28;20049;-65
2022/05/05 13:40:46;;;;;;;28.77;23.08;;;;;;;;;;5058548;28;20045;-66
2022/05/05 13:43:12;;;;;;;28.67;23.10;;;;;;;;;;5061580;28;20545;-66
2022/05/05 13:45:39;;;;;;;28.58;23.50;;;;;;;;;;5065915;28;20056;-66
2022/05/05 13:48:06;;;;;;;23.40;19.80;;;;;;;;;;5072043;28;20060;-67
2022/05/05 13:50:33;;;;;;;26.40;21.38;;;;;;;;;;5065996;28;20049;-65
2022/05/05 13:52:59;;;;;;;23.65;20.23;;;;;;;;;;5051175;28;20445;-69
2022/05/05 13:55:29;;;;;;;26.77;20.52;;;;;;;;;;5065257;28;20091;-66
2022/05/05 13:57:59;;;;;;;22.45;19.23;;;;;;;;;;5060207;28;20056;-68
2022/05/05 14:00:26;;;;;;;22.20;19.30;;;;;;;;;;5064607;28;20044;-67
2022/05/05 14:02:53;;;;;;;22.95;19.00;;;;;;;;;;5055182;28;20056;-73
2022/05/05 14:05:20;;;;;;;22.73;18.67;;;;;;;;;;5060813;28;20118;-78
2022/05/05 14:13:17;;;;;;;21.85;18.80;;;;;;;;;;5059741;28;20662;-78
2022/05/05 14:15:45;;;;;;;19.60;17.45;;;;;;;;;;5063024;28;20169;-77
2022/05/05 14:18:12;;;;;;;20.30;18.00;;;;;;;;;;5042400;28;20053;-74
2022/05/05 14:20:38;;;;;;;21.33;17.85;;;;;;;;;;5058798;28;20041;-73
2022/05/05 14:23:05;;;;;;;24.90;17.95;;;;;;;;;;5060292;28;20045;-76
2022/05/05 14:25:32;;;;;;;20.73;17.98;;;;;;;;;;5042271;28;20048;-76
2022/05/05 14:27:59;;;;;;;25.58;19.10;;;;;;;;;;5062178;28;20049;-74
2022/05/05 14:30:25;;;;;;;21.30;19.02;;;;;;;;;;5059992;28;20051;-73
2022/05/05 14:32:52;;;;;;;21.98;19.48;;;;;;;;;;5059317;28;20045;-67
2022/05/05 14:35:19;;;;;;;21.48;18.83;;;;;;;;;;5059584;28;20057;-69
2022/05/05 14:37:46;;;;;;;21.30;18.15;;;;;;;;;;5060953;28;20057;-68
2022/05/05 14:40:13;;;;;;;21.50;19.20;;;;;;;;;;5059315;28;20054;-69
2022/05/05 14:42:40;;;;;;;21.05;18.27;;;;;;;;;;5060373;28;20048;-69
2022/05/05 14:45:07;;;;;;;21.50;19.17;;;;;;;;;;5057203;28;20049;-69
2022/05/05 14:47:34;;;;;;;22.58;19.15;;;;;;;;;;5059999;28;20094;-69
2022/05/05 14:50:00;;;;;;;21.40;19.02;;;;;;;;;;5061016;28;20492;-69
2022/05/05 14:52:27;;;;;;;23.15;20.35;;;;;;;;;;5060019;28;20502;-69
2022/05/05 14:54:53;;;;;;;25.90;21.42;;;;;;;;;;5059233;28;20110;-70
2022/05/05 14:57:20;;;;;;;23.67;19.92;;;;;;;;;;5060066;28;20122;-69
2022/05/05 14:59:50;;;;;;;22.10;19.65;;;;;;;;;;5058585;28;20106;-69
2022/05/05 15:02:17;;;;;;;24.73;20.63;;;;;;;;;;5061759;28;20053;-69
2022/05/05 15:04:44;;;;;;;27.42;21.33;;;;;;;;;;5059381;28;20465;-69
2022/05/05 15:07:12;;;;;;;26.25;20.70;;;;;;;;;;5058021;28;20157;-70
2022/05/05 15:09:38;;;;;;;26.10;20.45;;;;;;;;;;5057733;28;20553;-69
2022/05/05 15:12:06;;;;;;;26.20;19.65;;;;;;;;;;5051434;28;20041;-68
2022/05/05 15:14:34;;;;;;;25.95;21.17;;;;;;;;;;5054660;28;20040;-69
2022/05/05 15:17:03;;;;;;;25.98;21.13;;;;;;;;;;5057272;28;20060;-69
2022/05/05 15:19:30;;;;;;;26.77;21.85;;;;;;;;;;5065100;28;20456;-70
2022/05/05 15:22:03;;;;;;;24.98;21.02;;;;;;;;;;5060365;28;20165;-69
2022/05/05 15:24:29;;;;;;;25.75;20.15;;;;;;;;;;5061028;28;20055;-69
2022/05/05 15:26:56;;;;;;;25.27;21.52;;;;;;;;;;5058831;28;20098;-70